1990 ROSITA (1990005S13112)


On this page: IBTrACS data - Map and Plots - Positions - Intensities - Original source data

Summary

Start Jan 4
End Jan 17
Basin SI
LMI 50 kt
Sources bom
neumann
In WMO? Yes
Previous storm 1990 BAOMAVO (SI)
Previous in basin 1990 BAOMAVO (SI)
Concurrent storms 1990 ALIBERA (SI)
1990 BAOMAVO (SI)
1990 ROSITA (SI)
1990 KORYN (WP)
1990 SAM (SI)
Next in basin 1990 SAM (SI)
Next storm 1990 KORYN (WP)

top of page IBTrACS Data: File Access

top of page HURSAT Data: File Access

Image of storm

top of page Plots:

Map of storm track will not appear if FTP is down
Time series of cyclone Maximum Sustained Wind will not appear if FTP is down
Time series of cyclone Minimum Central Pressure will not appear if FTP is down

top of page Track Data:Position

bom neumann
Date Lat Lon Lat Lon
1990-01-04 18:00:00 -12.7 111.7
1990-01-05 00:00:00 -12.8 110.6 -12.8 110.6
1990-01-05 06:00:00 -12.9 109.8 -12.9 109.8
1990-01-05 12:00:00 -13.0 108.5 -13.0 108.5
1990-01-05 18:00:00 -13.2 107.0 -13.2 107.0
1990-01-06 00:00:00 -13.4 105.7 -13.4 105.7
1990-01-06 06:00:00 -13.8 104.4 -13.8 104.4
1990-01-06 12:00:00 -14.0 104.2 -14.0 104.2
1990-01-06 18:00:00 -14.3 103.8 -14.3 103.8
1990-01-07 00:00:00 -14.6 103.6 -14.6 103.6
1990-01-07 06:00:00 -15.0 103.4 -15.0 103.4
1990-01-07 12:00:00 -15.2 103.6 -15.2 103.6
1990-01-07 18:00:00 -15.2 103.8 -15.2 103.8
1990-01-08 00:00:00 -15.1 104.2 -15.1 104.2
1990-01-08 06:00:00 -14.9 104.3 -14.9 104.3
1990-01-08 12:00:00 -14.4 104.3 -14.4 104.3
1990-01-08 18:00:00 -14.0 104.2 -14.0 104.2
1990-01-09 00:00:00 -13.5 104.1 -13.5 104.1
1990-01-09 06:00:00 -13.2 103.8 -13.2 103.8
1990-01-09 12:00:00 -12.3 103.2 -12.3 103.2
1990-01-09 18:00:00 -11.6 102.6 -11.6 102.6
1990-01-10 00:00:00 -10.8 102.0 -10.8 102.0
1990-01-10 06:00:00 -10.0 101.3 -10.0 101.3
1990-01-10 12:00:00 -9.8 100.4 -9.8 100.4
1990-01-10 18:00:00 -10.0 100.2 -10.0 100.2
bom neumann
1990-01-11 00:00:00 -10.3 100.1 -10.3 100.1
1990-01-11 06:00:00 -10.5 100.1 -10.5 100.1
1990-01-11 12:00:00 -10.8 100.1 -10.8 100.1
1990-01-11 18:00:00 -11.0 100.3 -11.0 100.3
1990-01-12 00:00:00 -11.1 100.6 -11.1 100.6
1990-01-12 06:00:00 -11.3 101.1 -11.3 101.1
1990-01-12 12:00:00 -11.8 101.4 -11.8 101.4
1990-01-12 18:00:00 -12.3 101.7 -12.3 101.7
1990-01-13 00:00:00 -12.9 101.9 -12.9 101.9
1990-01-13 06:00:00 -13.4 102.1 -13.4 102.0
1990-01-13 12:00:00 -13.9 102.2 -13.9 102.2
1990-01-13 18:00:00 -14.4 102.3 -14.4 102.3
1990-01-14 00:00:00 -14.9 102.5 -14.9 102.5
1990-01-14 06:00:00 -15.4 102.6 -15.4 102.6
1990-01-14 12:00:00 -15.8 102.6 -15.8 102.6
1990-01-14 18:00:00 -16.4 102.6 -16.4 102.6
1990-01-15 00:00:00 -16.6 102.1 -16.6 102.1
1990-01-15 06:00:00 -16.3 101.6 -16.3 101.6
1990-01-15 12:00:00 -16.0 101.1 -16.0 101.1
1990-01-15 18:00:00 -15.6 100.5 -15.6 100.5
1990-01-16 00:00:00 -15.2 100.0 -15.2 100.0
1990-01-16 06:00:00 -14.4 99.6 -14.4 99.6
1990-01-16 12:00:00 -13.8 99.2 -13.8 99.2
1990-01-16 18:00:00 -13.2 98.8 -13.2 98.8
bom neumann
1990-01-17 00:00:00 -12.6 98.6 -12.6 98.6
1990-01-17 06:00:00 -12.0 98.3 -12.0 98.3
1990-01-17 12:00:00 -11.2 98.1 -11.2 98.1

top of pageTrack Data:Intensity

bom neumann
Date Wind Pres Wind Pres
1990-01-04 18:00:00 25. 1004.
1990-01-05 00:00:00 25. 1004. 20. 1004.
1990-01-05 06:00:00 27. 1002. 25. 1002.
1990-01-05 12:00:00 29. 1001. 25. 1001.
1990-01-05 18:00:00 29. 1001. 25. 1001.
1990-01-06 00:00:00 31. 1000. 30. 1000.
1990-01-06 06:00:00 35. 998. 35. 998.
1990-01-06 12:00:00 31. 1000. 30. 1000.
1990-01-06 18:00:00 31. 1000. 30. 1000.
1990-01-07 00:00:00 31. 1000. 30. 1000.
1990-01-07 06:00:00 31. 1000. 30. 1000.
1990-01-07 12:00:00 29. 1001. 25. 1001.
1990-01-07 18:00:00 29. 1001. 25. 1001.
1990-01-08 00:00:00 27. 1002. 25. 1002.
1990-01-08 06:00:00 27. 1002. 25. 1002.
1990-01-08 12:00:00 27. 1002. 25. 1002.
1990-01-08 18:00:00 27. 1002. 25. 1002.
1990-01-09 00:00:00 27. 1003. 25. 1003.
1990-01-09 06:00:00 25. 1004. 20. 1004.
1990-01-09 12:00:00 25. 1004. 20. 1004.
1990-01-09 18:00:00 27. 1003. 25. 1003.
1990-01-10 00:00:00 27. 1002. 25. 1002.
1990-01-10 06:00:00 31. 1000. 30. 1000.
1990-01-10 12:00:00 31. 1000. 30. 1000.
1990-01-10 18:00:00 31. 1000. 30. 1000.
bom neumann
1990-01-11 00:00:00 31. 1000. 30. 1000.
1990-01-11 06:00:00 31. 1000. 30. 1000.
1990-01-11 12:00:00 31. 1000. 30. 1000.
1990-01-11 18:00:00 31. 1000. 30. 1000.
1990-01-12 00:00:00 31. 1000. 30. 1000.
1990-01-12 06:00:00 35. 998. 35. 998.
1990-01-12 12:00:00 35. 998. 35. 998.
1990-01-12 18:00:00 35. 997. 35. 997.
1990-01-13 00:00:00 39. 995. 40. 995.
1990-01-13 06:00:00 43. 992. 45. 992.
1990-01-13 12:00:00 47. 990. 45. 990.
1990-01-13 18:00:00 49. 988. 50. 988.
1990-01-14 00:00:00 49. 988. 50. 988.
1990-01-14 06:00:00 47. 990. 45. 990.
1990-01-14 12:00:00 47. 990. 45. 990.
1990-01-14 18:00:00 41. 994. 40. 994.
1990-01-15 00:00:00 37. 996. 35. 996.
1990-01-15 06:00:00 35. 997. 35. 997.
1990-01-15 12:00:00 35. 998. 35. 998.
1990-01-15 18:00:00 33. 999. 30. 999.
1990-01-16 00:00:00 31. 1000. 30. 1000.
1990-01-16 06:00:00 31. 1000. 30. 1000.
1990-01-16 12:00:00 31. 1000. 30. 1000.
1990-01-16 18:00:00 31. 1000. 30. 1000.
bom neumann
1990-01-17 00:00:00 31. 1000. 30. 1000.
1990-01-17 06:00:00 29. 1001. 25. 1001.
1990-01-17 12:00:00 27. 1002. 25. 1002.

top of page Links to source data

Source Source file Format
bom IDCKMSTM0S.csv:Line=17700:ROSITA CSV file (from Excel file)
neumann tracks.sh:Storm=878:ROSITA:BSH991990:BM789 HURDAT